Latest Coastal Weather Observations for Williamtown

IDN60701

Issued at 5:11 am EST Monday 1 June 2020 (issued every 10 minutes, with the page automatically refreshed every 10 minutes)

About coastal observations | Map of coastal stations | Coastal observations for NSW | Marine services | Other Formats
Station Details ID: 061078 Name: WILLIAMTOWN RAAF Lat: -32.79 Lon: 151.84 Height: 7.5 m
Data from the previous 72 hours. | See also: Recent months at Williamtown
Date/Time
EST
Wind Sea
Height
m
Swell Vis
km
Cloud Weather Temp
°C
Press
hPa
Rain since
9am
mm
Dir  Spd
kts
Gust
kts
Height
m
Period
s
Dir
01/05:00am CALM 0 0 - - - - 10 Partly cloudy - 9.2 1012.2 0.0
01/04:30am NE 1 3 - - - - 10 - - 9.5 1012.2 0.0
01/04:00am WNW 3 6 - - - - 10 - - 8.9 1012.4 0.0
01/03:30am CALM 0 0 - - - - 10 Partly cloudy - 8.1 1012.6 0.0
01/03:00am NW 5 6 - - - - 10 Mostly clear - 9.4 1012.9 0.0
01/02:30am CALM 0 0 - - - - 10 - - 8.5 1013.0 0.0
01/02:00am CALM 0 0 - - - - 10 - - 9.5 1013.3 0.0
01/01:30am CALM 0 0 - - - - 10 - - 9.9 1013.5 0.0
01/01:07am CALM 0 0 - - - - 10 - - 10.3 1013.6 0.0
01/01:00am CALM 0 0 - - - - 10 - - 10.1 1013.7 0.0
01/12:50am CALM 0 0 - - - - 6 - - 10.1 1013.9 0.0
01/12:30am CALM 0 0 - - - - 10 - - 11.5 1014.1 0.0
01/12:00am CALM 0 0 - - - - 10 Mostly clear - 11.5 1014.2 0.0
 
Date/Time
EST
Wind Sea
Height
m
Swell Vis
km
Cloud Weather Temp
°C
Press
hPa
Rain since
9am
mm
Dir  Spd
kts
Gust
kts
Height
m
Period
s
Dir
31/11:30pm CALM 0 0 - - - - 10 Partly cloudy - 12.4 1014.5 0.0
31/11:00pm N 4 5 - - - - 10 Partly cloudy - 14.0 1014.9 0.0
31/10:30pm N 7 8 - - - - 10 Partly cloudy - 14.7 1015.1 0.0
31/10:00pm NNE 7 9 - - - - 10 Partly cloudy - 14.6 1015.3 0.0
31/09:30pm N 6 7 - - - - 10 - - 14.7 1015.6 0.0
31/09:00pm NNE 6 8 - - - - 10 - - 15.0 1016.0 0.0
31/08:30pm NNE 6 8 - - - - 10 Partly cloudy - 15.2 1016.3 0.0
31/08:00pm NNE 5 6 - - - - 10 Partly cloudy - 14.6 1016.3 0.0
31/07:30pm NE 3 4 - - - - 10 Partly cloudy - 14.4 1016.6 0.0
31/07:00pm NE 3 5 - - - - 10 Partly cloudy - 15.9 1016.6 0.0
31/06:30pm NE 5 6 - - - - 10 Partly cloudy - 16.7 1016.4 0.0
31/06:00pm NE 4 5 - - - - 10 Partly cloudy - 16.2 1016.2 0.0
31/05:30pm NE 3 4 - - - - 10 Cloudy - 17.3 1016.3 0.0
31/05:00pm ENE 4 6 - - - - 10 Cloudy - 18.0 1016.2 0.0
31/04:30pm E 4 6 - - - - 10 Cloudy - 18.4 1016.3 0.0
31/04:00pm ENE 3 5 - - - - 10 Cloudy - 18.5 1016.3 0.0
31/03:30pm E 1 5 - - - - 10 Cloudy - 19.0 1016.4 0.0
31/03:00pm CALM 0 3 - - - - 10 Mostly cloudy - 19.4 1016.6 0.0
31/02:30pm E 4 6 - - - - 10 Partly cloudy - 19.6 1016.6 0.0
31/02:00pm CALM 0 3 - - - - 10 - - 19.5 1016.8 0.0
31/01:30pm NW 2 4 - - - - 10 - - 19.1 1017.0 0.0
31/01:00pm W 1 4 - - - - 10 - - 17.4 1017.6 0.0
31/12:30pm WSW 5 10 - - - - 10 - - 17.1 1018.0 0.0
31/12:00pm WSW 5 10 - - - - 10 Mostly cloudy - 17.1 1018.4 0.0
31/11:30am CALM 0 2 - - - - 10 - - 17.2 1018.7 0.0
31/11:00am NW 5 6 - - - - 10 - - 16.5 1019.2 0.0
31/10:30am WNW 5 6 - - - - 10 - - 16.3 1019.7 0.0
31/10:00am NNW 4 5 - - - - 10 - - 15.4 1020.1 0.0
31/09:30am NNW 5 6 - - - - 10 Partly cloudy - 15.1 1020.4 0.0
31/09:00am NNW 5 7 - - - - 10 Mostly clear - 13.4 1020.6 0.2
31/08:30am NNW 4 6 - - - - 10 Partly cloudy - 12.0 1020.8 0.2
31/08:00am NW 3 6 - - - - 10 Partly cloudy - 11.0 1020.9 0.2
31/07:30am NNW 3 4 - - - - 10 Partly cloudy - 10.3 1021.1 0.2
31/07:00am NW 1 4 - - - - 7 Partly cloudy - 9.6 1020.9 0.2
31/06:34am W 1 4 - - - - 10 Partly cloudy - 9.3 1020.8 0.2
31/06:30am CALM 0 0 - - - - 9 Partly cloudy - 9.3 1020.8 0.2
31/06:26am W 1 3 - - - - 7 Partly cloudy - 9.2 1020.7 0.2
31/06:00am CALM 0 0 - - - - 0.4 Cloudy - 9.5 1020.8 0.2
31/05:38am WNW 4 9 - - - - 0.1 Partly cloudy - 8.9 1020.7 0.2
31/05:30am NNE 2 9 - - - - 0.9 Partly cloudy - 8.4 1020.8 0.2
31/05:29am NNE 1 9 - - - - 3 Partly cloudy - 8.3 1020.8 0.2
31/05:00am NNW 2 4 - - - - 10 - - 9.5 1020.3 0.2
31/04:37am NNW 5 6 - - - - 10 Partly cloudy - 10.9 1020.4 0.2
31/04:30am NW 5 6 - - - - 10 Partly cloudy - 10.6 1020.5 0.2
31/04:05am CALM 0 0 - - - - 6 - - 9.6 1020.3 0.2
31/04:00am CALM 0 0 - - - - 10 - - 10.0 1020.2 0.2
31/03:30am CALM 0 0 - - - - 10 - - 11.1 1020.2 0.2
31/03:00am NNW 5 6 - - - - 10 - Recent precip. 11.4 1020.4 0.2
31/02:30am N 6 7 - - - - 10 - - 13.0 1020.3 0.2
31/02:00am NNE 6 7 - - - - 10 - - 13.3 1020.3 0.0
31/01:30am NNE 5 6 - - - - 10 - - 13.2 1020.5 0.0
31/01:00am NE 5 7 - - - - 10 - - 13.5 1020.6 0.0
31/12:30am NNE 7 9 - - - - 10 - - 13.6 1020.8 0.0
31/12:00am NNE 5 7 - - - - 10 - - 13.2 1021.6 0.0
 
Date/Time
EST
Wind Sea
Height
m
Swell Vis
km
Cloud Weather Temp
°C
Press
hPa
Rain since
9am
mm
Dir  Spd
kts
Gust
kts
Height
m
Period
s
Dir
30/11:30pm NNE 7 8 - - - - 10 - - 13.4 1022.0 0.0
30/11:00pm N 5 6 - - - - 10 - - 13.0 1022.3 0.0
30/10:30pm NNE 5 7 - - - - 10 - - 13.8 1022.7 0.0
30/10:00pm NNE 5 6 - - - - 10 - - 13.8 1023.1 0.0
30/09:30pm NNE 5 7 - - - - 10 - - 14.7 1023.4 0.0
30/09:00pm NE 6 8 - - - - 10 - - 14.7 1023.7 0.0
30/08:30pm NNE 6 8 - - - - 10 - - 14.3 1024.0 0.0
30/08:00pm NNE 5 6 - - - - 10 - - 13.5 1023.9 0.0
30/07:30pm NNW 1 4 - - - - 10 - - 12.1 1023.9 0.0
30/07:00pm CALM 0 2 - - - - 10 - - 13.6 1023.5 0.0
30/06:30pm NE 5 6 - - - - 10 - - 14.5 1023.5 0.0
30/06:00pm ENE 4 6 - - - - 10 - - 15.1 1023.3 0.0
30/05:30pm ENE 5 6 - - - - 10 - - 15.9 1023.0 0.0
30/05:00pm E 5 7 - - - - 10 - - 16.8 1023.3 0.0
30/04:30pm ENE 6 7 - - - - 10 - - 17.9 1023.7 0.0
30/04:00pm ENE 6 7 - - - - 10 - - 18.5 1023.7 0.0
30/03:30pm ENE 5 8 - - - - 10 - - 18.9 1024.1 0.0
30/03:00pm ENE 5 7 - - - - 10 - - 18.9 1024.4 0.0
30/02:30pm NE 4 6 - - - - 10 Partly cloudy - 18.9 1024.6 0.0
30/02:00pm NE 3 5 - - - - 10 Cloudy - 18.1 1024.8 0.0
30/01:30pm NNE 4 6 - - - - 10 Cloudy - 17.8 1025.0 0.0
30/01:00pm NNW 4 5 - - - - 10 Cloudy - 17.7 1025.4 0.0
30/12:30pm NW 5 6 - - - - 10 Cloudy - 17.2 1025.9 0.0
30/12:00pm NW 6 7 - - - - 10 Cloudy - 16.6 1026.2 0.0
30/11:30am NW 5 6 - - - - 10 Cloudy - 15.8 1026.7 0.0
30/11:00am NW 6 7 - - - - 10 Cloudy - 15.1 1027.1 0.0
30/10:43am NW 6 8 - - - - 10 Partly cloudy - 14.4 1027.4 0.0
30/10:30am WNW 5 6 - - - - 10 Partly cloudy - 14.1 1027.4 0.0
30/10:00am NW 7 8 - - - - 3 Cloudy - 13.1 1027.7 0.0
30/09:30am NW 7 8 - - - - 2 Cloudy - 12.6 1028.0 0.0
30/09:00am NW 5 7 - - - - 0.5 Cloudy - 11.8 1027.9 12.6
30/08:30am NW 8 9 - - - - 0.5 Cloudy - 10.8 1028.0 12.6
30/08:00am NW 5 6 - - - - 0.3 Cloudy - 10.4 1028.0 12.6
30/07:30am NW 6 7 - - - - 0.3 Cloudy - 9.7 1028.0 12.6
30/07:00am NW 6 6 - - - - 0.1 Cloudy - 8.7 1027.8 12.6
30/06:30am WNW 6 7 - - - - 0.1 Cloudy - 8.8 1027.5 12.6
30/06:00am WNW 6 6 - - - - 0.5 Cloudy - 8.2 1027.2 12.6
30/05:30am WNW 4 5 - - - - 0.6 Partly cloudy - 8.3 1027.1 12.6
30/05:24am WNW 5 6 - - - - 1 Partly cloudy - 8.3 1027.1 12.6
30/05:10am WNW 4 5 - - - - 5 Partly cloudy - 8.3 1027.0 12.6
30/05:00am WNW 4 4 - - - - 2 Partly cloudy - 8.4 1026.9 12.6
30/04:30am CALM 0 0 - - - - 0.3 Partly cloudy - 8.2 1026.7 12.4
30/04:00am CALM 0 3 - - - - 0.2 Cloudy - 8.5 1026.5 12.4
30/03:30am CALM 0 0 - - - - 6 Partly cloudy - 9.4 1026.4 12.4
30/03:00am NW 1 4 - - - - 2 Mostly cloudy - 9.8 1026.7 12.4
30/02:38am CALM 0 0 - - - - 0.2 Partly cloudy - 9.9 1026.8 12.4
30/02:30am CALM 0 0 - - - - 0.2 Partly cloudy - 9.3 1026.9 12.4
30/02:00am NW 3 4 - - - - 2 - - 10.2 1026.9 12.4
30/01:30am NW 5 6 - - - - 0.8 - - 11.4 1027.0 12.4
30/01:00am NW 5 5 - - - - 3 Partly cloudy - 11.2 1027.0 12.4
30/12:30am WNW 5 5 - - - - 0.3 Partly cloudy - 11.0 1027.1 12.4
30/12:00am NNW 1 5 - - - - 5 - - 12.1 1027.2 12.4
 
Date/Time
EST
Wind Sea
Height
m
Swell Vis
km
Cloud Weather Temp
°C
Press
hPa
Rain since
9am
mm
Dir  Spd
kts
Gust
kts
Height
m
Period
s
Dir
29/11:35pm WNW 5 6 - - - - 6 Partly cloudy - 12.0 1027.5 12.4
29/11:30pm NW 5 6 - - - - 8 Partly cloudy - 12.1 1027.5 12.4
29/11:00pm NW 6 7 - - - - 10 Partly cloudy - 11.8 1027.6 12.4
29/10:30pm NW 5 6 - - - - 10 Partly cloudy - 12.9 1027.6 12.4
29/10:00pm NW 6 7 - - - - 10 Partly cloudy - 12.5 1027.7 12.4
29/09:30pm NNW 4 5 - - - - 10 Partly cloudy - 12.9 1027.7 12.4
29/09:00pm NW 5 6 - - - - 10 Cloudy Rain 13.1 1027.6 12.4
29/08:30pm NW 3 4 - - - - 10 Partly cloudy - 12.9 1027.5 12.4
29/08:00pm NW 5 5 - - - - 10 Partly cloudy - 13.3 1027.4 12.4
29/07:30pm WNW 4 5 - - - - 10 Partly cloudy - 13.1 1027.2 12.4
29/07:00pm WNW 5 6 - - - - 10 Partly cloudy - 13.8 1026.9 12.4
29/06:30pm WSW 5 7 - - - - 10 Partly cloudy - 14.1 1026.8 12.4
29/06:00pm NW 4 5 - - - - 10 Cloudy - 14.1 1026.5 12.4
29/05:30pm NNW 4 5 - - - - 10 Partly cloudy - 14.6 1026.4 12.4
29/05:00pm WSW 5 6 - - - - 10 Partly cloudy - 15.3 1026.4 12.4
29/04:30pm WSW 6 6 - - - - 10 Partly cloudy - 15.2 1026.1 12.4
29/04:00pm SW 5 6 - - - - 10 Partly cloudy - 15.2 1025.9 12.4
29/03:30pm SW 8 9 - - - - 10 Partly cloudy - 15.6 1025.7 12.0
29/03:00pm SSW 7 9 - - - - 10 Cloudy Showers 16.6 1025.6 11.6
29/02:30pm S 6 11 - - - - 10 Mostly clear - 16.7 1025.5 11.6
29/02:00pm S 8 14 - - - - 10 Mostly clear - 16.7 1025.5 11.6
29/01:30pm SW 8 10 - - - - 10 Mostly clear - 17.4 1025.6 11.6
29/01:00pm WSW 5 7 - - - - 10 Mostly clear - 16.3 1025.6 11.6
29/12:30pm NW 4 5 - - - - 10 Mostly clear Showers 15.4 1026.0 11.4
29/12:09pm WSW 7 9 - - - - 4 Partly cloudy Showers 15.3 1026.2 9.8
29/12:00pm W 7 9 - - - - 9 Mostly cloudy Showers 15.4 1026.3 8.8
29/11:53am NW 8 10 - - - - 10 Partly cloudy Showers 15.3 1026.2 8.8
29/11:30am NW 5 7 - - - - 4 Partly cloudy Showers 14.6 1026.6 7.6
29/11:05am NNE 3 6 - - - - 4 Partly cloudy Showers 14.5 1027.0 2.0
29/11:00am NNW 5 7 - - - - 5 Partly cloudy - 14.7 1027.0 1.0
29/10:46am N 6 8 - - - - 7 Partly cloudy Showers 14.4 1026.7 0.8
29/10:30am NE 8 12 - - - - 10 Partly cloudy Showers 14.8 1027.0 0.0
29/10:00am WNW 7 8 - - - - 10 Mostly clear - 15.9 1026.6 0.0
29/09:30am WNW 7 9 - - - - 10 Mostly clear - 14.9 1026.5 0.0
29/09:00am WNW 7 8 - - - - 10 Partly cloudy - 14.3 1026.3 1.6
29/08:30am WNW 7 9 - - - - 10 Mostly clear - 13.0 1026.1 1.6
29/08:00am NW 7 8 - - - - 10 Mostly clear - 11.8 1025.8 1.6
29/07:30am WNW 7 8 - - - - 10 Mostly clear - 11.0 1025.6 1.6
29/07:18am WNW 7 7 - - - - 10 Mostly clear - 11.0 1025.4 1.6
29/07:00am NW 3 5 - - - - 7 Partly cloudy - 10.9 1025.4 1.4
29/06:30am NW 6 7 - - - - 10 Partly cloudy - 10.3 1025.0 1.2
29/06:00am NW 7 7 - - - - 10 - - 10.5 1024.4 1.2
29/05:30am NW 7 8 - - - - 10 - - 10.6 1023.9 1.2

Other formats

Comma delimited format used in spreadsheet applications
http://www.bom.gov.au/fwo/IDN60701/IDN60701.94776.axf

JavaScript Object Notation format (JSON) in row-major order
http://www.bom.gov.au/fwo/IDN60701/IDN60701.94776.json

Data quality

Most of these data are generated automatically and are frequently updated. Quality checks on data are not normally performed. It is possible for incorrect values to appear. Refer to information at About Latest Weather Observations and please check the disclaimer before using these data.